createdAt,value
2018-09-19T04:33:41.282Z,11.00
2018-09-19T04:36:09.250Z,5.50
2018-09-19T04:38:37.265Z,12.17
2018-09-19T04:41:05.315Z,7.90
2018-09-19T04:43:33.346Z,4.37
2018-09-19T04:46:01.321Z,6.47
2018-09-19T04:48:29.270Z,9.43
2018-09-19T04:50:57.255Z,5.03
2018-09-19T04:53:25.270Z,3.50
2018-09-19T04:55:53.222Z,5.13
2018-09-19T04:58:21.212Z,4.83
2018-09-19T05:00:49.193Z,5.27
2018-09-19T05:03:17.159Z,11.33
2018-09-19T05:05:45.157Z,7.30
2018-09-19T05:08:13.099Z,4.37
2018-09-19T05:10:41.093Z,9.10
2018-09-19T05:13:09.114Z,5.10
2018-09-19T05:15:37.107Z,8.93
2018-09-19T05:18:05.165Z,10.03
2018-09-19T05:20:33.196Z,8.33
2018-09-19T05:23:01.508Z,8.23
2018-09-19T05:25:29.516Z,5.43
2018-09-19T05:27:57.528Z,5.30
2018-09-19T05:30:25.544Z,4.33
2018-09-19T05:32:53.879Z,5.13
2018-09-19T05:35:22.105Z,5.60
2018-09-19T05:37:50.064Z,5.20
2018-09-19T05:40:18.104Z,7.63
2018-09-19T05:42:46.339Z,6.77
2018-09-19T05:45:14.330Z,5.40
2018-09-19T05:47:42.659Z,5.83
2018-09-19T05:50:10.707Z,7.80
2018-09-19T05:52:38.704Z,6.80
2018-09-19T05:55:06.735Z,7.10
2018-09-19T05:57:34.716Z,5.70
2018-09-19T06:00:02.747Z,4.73
2018-09-19T06:02:30.741Z,6.60
2018-09-19T06:04:58.778Z,6.23
2018-09-19T06:07:26.697Z,4.80
2018-09-19T06:09:54.673Z,6.07
2018-09-19T06:12:22.680Z,5.43
2018-09-19T06:14:50.666Z,6.13
2018-09-19T06:17:18.644Z,13.43
2018-09-19T06:19:46.620Z,5.47
2018-09-19T06:22:14.627Z,4.97
2018-09-19T06:24:42.654Z,5.73
2018-09-19T06:27:10.613Z,9.00
2018-09-19T06:29:38.590Z,7.07
2018-09-19T06:32:07.029Z,3.77
2018-09-19T06:34:35.036Z,6.93
2018-09-19T06:37:03.064Z,9.30
2018-09-19T06:39:31.080Z,4.23
2018-09-19T06:41:59.133Z,4.47
2018-09-19T06:44:27.549Z,9.07
2018-09-19T06:46:55.635Z,4.40
2018-09-19T06:49:23.609Z,8.80
2018-09-19T06:51:51.649Z,7.87
2018-09-19T06:54:19.646Z,3.20
2018-09-19T06:56:47.681Z,6.03
2018-09-19T06:59:15.688Z,10.10
2018-09-19T07:01:43.690Z,6.20
2018-09-19T07:04:11.797Z,5.40
2018-09-19T07:06:39.815Z,4.70
2018-09-19T07:09:08.380Z,4.23
2018-09-19T07:11:36.378Z,6.33
2018-09-19T07:14:04.572Z,4.53
2018-09-19T07:16:32.890Z,4.37
2018-09-19T07:19:00.930Z,4.80
2018-09-19T07:21:28.913Z,3.87
2018-09-19T07:23:56.962Z,5.00
2018-09-19T07:26:24.922Z,5.43
2018-09-19T07:28:52.897Z,5.03
2018-09-19T07:31:21.225Z,6.87
2018-09-19T07:33:49.263Z,7.80
2018-09-19T07:36:17.227Z,7.03
2018-09-19T07:38:45.284Z,8.03
2018-09-19T07:41:13.667Z,5.93
2018-09-19T07:43:41.836Z,4.70
2018-09-19T07:46:09.804Z,5.67
2018-09-19T07:48:37.801Z,5.90
2018-09-19T07:51:05.801Z,4.40
2018-09-19T07:53:34.739Z,4.97
2018-09-19T07:56:03.186Z,7.03
2018-09-19T07:58:31.740Z,6.00
2018-09-19T08:00:59.902Z,5.57
2018-09-19T08:03:27.848Z,4.37
2018-09-19T08:05:55.863Z,5.13
2018-09-19T08:08:23.881Z,9.97
2018-09-19T08:10:52.301Z,4.47
2018-09-19T08:13:20.246Z,8.60
2018-09-19T08:15:48.245Z,6.33
2018-09-19T08:18:16.202Z,5.00
2018-09-19T08:20:44.175Z,8.57
2018-09-19T08:23:12.153Z,5.20
2018-09-19T08:25:40.129Z,5.43
2018-09-19T08:28:08.142Z,4.77
2018-09-19T08:30:36.185Z,4.43
2018-09-19T08:33:04.182Z,4.00
2018-09-19T08:35:32.203Z,7.60
2018-09-19T08:38:00.162Z,7.23
2018-09-19T08:40:28.159Z,5.60
2018-09-19T08:42:56.143Z,3.70
2018-09-19T08:45:24.176Z,7.97
2018-09-19T08:47:52.122Z,6.30
2018-09-19T08:50:20.105Z,5.90
2018-09-19T08:52:48.261Z,6.50
2018-09-19T08:55:16.275Z,6.60
2018-09-19T08:57:44.279Z,6.00
2018-09-19T09:00:12.263Z,6.47
2018-09-19T09:02:40.320Z,4.80
2018-09-19T09:05:08.398Z,8.50
2018-09-19T09:07:36.424Z,5.37
2018-09-19T09:10:04.459Z,4.67
2018-09-19T09:12:32.658Z,6.60
2018-09-19T09:15:00.611Z,5.20
2018-09-19T09:17:28.581Z,9.60
2018-09-19T09:19:56.828Z,9.77
2018-09-19T09:22:24.815Z,6.57
2018-09-19T09:24:52.826Z,6.90
2018-09-19T09:27:20.857Z,13.53
2018-09-19T09:29:48.832Z,6.47
2018-09-19T09:34:44.112Z,5.73
2018-09-19T09:37:12.075Z,7.77
2018-09-19T09:39:40.010Z,6.93
2018-09-19T09:42:08.012Z,7.40
2018-09-19T09:44:35.976Z,6.47
2018-09-19T09:47:03.981Z,7.40
2018-09-19T09:49:31.950Z,6.57
2018-09-19T09:51:59.945Z,6.63
2018-09-19T09:54:28.299Z,7.10
2018-09-19T09:56:56.333Z,8.07
2018-09-19T09:59:24.364Z,8.23
2018-09-19T10:01:52.368Z,6.83
2018-09-19T10:04:20.340Z,10.77
2018-09-19T10:06:48.351Z,7.63
2018-09-19T10:09:16.325Z,6.13
2018-09-19T10:11:44.351Z,6.00
2018-09-19T10:14:12.357Z,7.90
2018-09-19T10:16:40.368Z,8.07
2018-09-19T10:19:08.340Z,7.30
2018-09-19T10:21:36.329Z,9.50
2018-09-19T10:24:04.278Z,6.87
2018-09-19T10:26:32.282Z,5.00
2018-09-19T10:29:00.250Z,9.07
2018-09-19T10:31:28.226Z,6.00
2018-09-19T10:33:56.230Z,7.60
2018-09-19T10:36:24.188Z,6.70
2018-09-19T10:38:52.194Z,8.23
2018-09-19T10:41:20.154Z,8.87
2018-09-19T10:43:48.111Z,7.30
2018-09-19T10:46:16.080Z,8.50
2018-09-19T10:48:44.060Z,7.73
2018-09-19T10:51:12.065Z,7.47
2018-09-19T10:53:40.036Z,9.80
2018-09-19T10:56:08.041Z,9.40
2018-09-19T10:58:36.053Z,6.97
2018-09-19T11:01:04.066Z,9.20
2018-09-19T11:03:32.021Z,7.50
2018-09-19T11:05:59.980Z,7.47
2018-09-19T11:08:27.967Z,9.53
2018-09-19T11:10:55.910Z,15.00
2018-09-19T11:13:23.880Z,6.90
2018-09-19T11:15:51.845Z,6.77
2018-09-19T11:18:19.837Z,6.13
2018-09-19T11:20:47.782Z,6.67
2018-09-19T11:23:15.732Z,7.43
2018-09-19T11:25:43.732Z,6.60
2018-09-19T11:28:11.685Z,7.67
2018-09-19T11:30:39.708Z,7.13
2018-09-19T11:33:07.720Z,8.83
2018-09-19T11:35:35.711Z,9.60
2018-09-19T11:38:04.241Z,8.40
2018-09-19T11:40:32.183Z,6.73
2018-09-19T11:43:00.179Z,5.67
2018-09-19T11:45:28.228Z,8.50
2018-09-19T11:47:56.214Z,6.93
2018-09-19T11:50:24.147Z,6.83
2018-09-19T11:52:52.401Z,13.40
2018-09-19T11:55:20.389Z,5.83
2018-09-19T11:57:48.380Z,10.53
2018-09-19T12:00:16.367Z,7.03
2018-09-19T12:02:44.367Z,7.43
2018-09-19T12:05:12.344Z,8.20
2018-09-19T12:07:40.364Z,7.90
2018-09-19T12:10:08.322Z,8.83
2018-09-19T12:12:36.435Z,6.13
2018-09-19T12:15:04.547Z,5.63
2018-09-19T12:17:32.518Z,10.90
2018-09-19T12:20:00.556Z,7.40
2018-09-19T12:22:28.542Z,7.00
2018-09-19T12:24:56.561Z,8.67
2018-09-19T12:27:24.515Z,8.43
2018-09-19T12:29:52.524Z,10.00
2018-09-19T12:32:20.510Z,11.33
2018-09-19T12:34:48.462Z,9.80
2018-09-19T12:37:16.448Z,12.67
2018-09-19T12:39:44.461Z,12.90
2018-09-19T12:42:12.421Z,9.70
2018-09-19T12:44:40.432Z,13.23
2018-09-19T12:47:08.423Z,10.33
2018-09-19T12:49:36.403Z,10.73
2018-09-19T12:52:04.383Z,15.73
2018-09-19T12:54:32.357Z,11.40
2018-09-19T12:57:00.349Z,10.97
2018-09-19T12:59:28.325Z,10.63
2018-09-19T13:01:56.325Z,12.03
2018-09-19T13:04:26.400Z,10.57
2018-09-19T13:06:54.660Z,9.03
2018-09-19T13:09:22.614Z,11.53
2018-09-19T13:11:50.585Z,9.50
2018-09-19T13:14:18.581Z,10.67
2018-09-19T13:16:47.429Z,10.10
2018-09-19T13:19:15.402Z,10.60
2018-09-19T13:21:43.384Z,11.03
2018-09-19T13:24:11.348Z,9.57
2018-09-19T13:26:39.364Z,14.43
2018-09-19T13:29:07.332Z,13.33
2018-09-19T13:31:35.316Z,9.60
2018-09-19T13:34:03.394Z,8.40
2018-09-19T13:36:31.365Z,10.57
2018-09-19T13:38:59.332Z,7.00
2018-09-19T13:41:27.290Z,10.90
2018-09-19T13:43:55.265Z,10.13
2018-09-19T13:46:23.289Z,9.37
2018-09-19T13:48:55.935Z,7.57
2018-09-19T13:51:24.419Z,8.83
2018-09-19T13:53:52.498Z,9.70
2018-09-19T13:56:20.950Z,14.47
2018-09-19T13:58:48.941Z,8.73
2018-09-19T14:01:16.954Z,9.67
2018-09-19T14:03:44.937Z,12.60
2018-09-19T14:06:13.005Z,9.93
2018-09-19T14:08:41.048Z,9.43
2018-09-19T14:11:09.037Z,9.93
2018-09-19T14:13:37.028Z,9.53
2018-09-19T14:16:05.390Z,7.90
2018-09-19T14:18:33.361Z,7.83
2018-09-19T14:21:01.358Z,7.90
2018-09-19T14:23:29.349Z,10.60
2018-09-19T14:25:57.324Z,8.50
2018-09-19T14:28:25.324Z,10.50
2018-09-19T14:30:53.275Z,7.63
2018-09-19T14:33:21.255Z,10.37
2018-09-19T14:35:49.335Z,8.60
2018-09-19T14:38:17.222Z,9.53
2018-09-19T14:40:45.192Z,9.70
2018-09-19T14:43:13.178Z,10.03
2018-09-19T14:45:41.160Z,7.87
2018-09-19T14:48:09.130Z,11.77
2018-09-19T14:50:37.131Z,8.63
2018-09-19T14:53:05.165Z,9.50
2018-09-19T14:55:33.140Z,15.50
2018-09-19T14:58:01.162Z,11.13
2018-09-19T15:00:29.178Z,9.43
2018-09-19T15:02:57.173Z,9.77
2018-09-19T15:05:25.157Z,9.33
2018-09-19T15:07:53.180Z,8.77
2018-09-19T15:10:21.121Z,10.13
2018-09-19T15:12:49.109Z,8.17
2018-09-19T15:15:17.261Z,8.17
2018-09-19T15:17:45.257Z,11.70
2018-09-19T15:20:13.286Z,10.60
2018-09-19T15:22:41.281Z,8.40
2018-09-19T15:25:09.249Z,11.07
2018-09-19T15:27:37.232Z,12.10
2018-09-19T15:30:05.367Z,9.23
2018-09-19T15:32:33.348Z,14.03
2018-09-19T15:35:01.318Z,11.20
2018-09-19T15:37:29.300Z,11.50
2018-09-19T15:39:57.274Z,12.20
2018-09-19T15:42:25.343Z,12.13
2018-09-19T15:44:53.308Z,11.57
2018-09-19T15:47:21.291Z,12.00
2018-09-19T15:49:49.299Z,10.27
2018-09-19T15:52:17.298Z,8.83
2018-09-19T15:54:45.319Z,8.27
2018-09-19T15:57:13.370Z,8.40
2018-09-19T15:59:41.324Z,9.63
2018-09-19T16:02:09.543Z,8.57
2018-09-19T16:04:37.513Z,10.00
2018-09-19T16:07:05.478Z,9.93
2018-09-19T16:09:33.466Z,7.87
2018-09-19T16:12:01.426Z,14.83
2018-09-19T16:14:29.428Z,14.90
2018-09-19T16:16:57.404Z,12.63
2018-09-19T16:19:25.372Z,13.50
2018-09-19T16:21:53.350Z,11.30
2018-09-19T16:24:21.340Z,10.67
2018-09-19T16:26:49.376Z,11.97
2018-09-19T16:29:17.386Z,11.63
2018-09-19T16:31:45.443Z,12.93
2018-09-19T16:34:13.441Z,12.80
2018-09-19T16:36:41.383Z,11.87
2018-09-19T16:39:10.839Z,16.57
2018-09-19T16:41:38.851Z,16.27
2018-09-19T16:44:06.990Z,9.90
2018-09-19T16:46:35.867Z,8.83
2018-09-19T16:49:04.227Z,9.87
2018-09-19T16:51:32.491Z,15.53
2018-09-19T16:54:01.205Z,9.03
2018-09-19T16:56:29.331Z,10.30
2018-09-19T17:01:45.634Z,13.00
2018-09-19T17:04:13.619Z,11.67
2018-09-19T17:06:41.631Z,13.90
2018-09-19T17:09:09.637Z,10.20
2018-09-19T17:11:38.401Z,13.03
2018-09-19T17:14:06.398Z,12.37
2018-09-19T17:16:34.356Z,17.60
2018-09-19T17:19:02.324Z,13.23
2018-09-19T17:21:30.316Z,13.07
2018-09-19T17:23:58.358Z,11.03
2018-09-19T17:26:26.308Z,12.73
2018-09-19T17:28:54.295Z,14.40
2018-09-19T17:31:22.273Z,13.97
2018-09-19T17:33:50.452Z,14.87
2018-09-19T17:36:18.400Z,16.27
2018-09-19T17:38:46.397Z,18.50
2018-09-19T17:41:14.396Z,17.40
2018-09-19T17:43:42.385Z,10.63
2018-09-19T17:46:10.381Z,12.03
2018-09-19T17:48:38.364Z,15.47
2018-09-19T17:53:52.921Z,13.00
2018-09-19T17:56:21.303Z,15.10
2018-09-19T17:58:49.350Z,13.07
2018-09-19T18:01:17.333Z,15.77
2018-09-19T18:03:45.337Z,15.30
2018-09-19T18:06:13.831Z,12.37
2018-09-19T18:08:41.840Z,14.73
2018-09-19T18:11:09.802Z,13.77
2018-09-19T18:13:37.765Z,17.40
2018-09-19T18:16:05.736Z,17.60
2018-09-19T18:18:33.716Z,17.60
2018-09-19T18:21:01.693Z,17.20
2018-09-19T18:23:29.729Z,13.67
2018-09-19T18:25:57.731Z,18.20
2018-09-19T18:28:25.757Z,14.43
2018-09-19T18:30:53.758Z,19.57
2018-09-19T18:33:21.765Z,16.00
2018-09-19T18:35:49.757Z,21.10
2018-09-19T18:38:17.738Z,14.87
2018-09-19T18:40:45.717Z,14.13
2018-09-19T18:43:13.646Z,17.23
2018-09-19T18:45:41.613Z,13.50
2018-09-19T18:48:10.003Z,12.33
2018-09-19T18:50:38.299Z,20.43
2018-09-19T18:53:06.272Z,16.70
2018-09-19T18:55:34.291Z,18.57
2018-09-19T18:58:02.283Z,18.50
2018-09-19T19:00:30.262Z,17.93
2018-09-19T19:02:58.288Z,24.83
2018-09-19T19:05:26.275Z,16.17
2018-09-19T19:07:54.279Z,16.67
2018-09-19T19:10:22.237Z,15.20
2018-09-19T19:12:50.190Z,17.87
2018-09-19T19:15:18.153Z,15.67
2018-09-19T19:17:46.099Z,14.20
2018-09-19T19:20:14.095Z,17.10
2018-09-19T19:22:42.072Z,18.60
2018-09-19T19:25:10.107Z,17.47
2018-09-19T19:27:38.090Z,17.57
2018-09-19T19:30:06.155Z,17.00
2018-09-19T19:32:34.067Z,17.20
2018-09-19T19:35:02.117Z,18.70
2018-09-19T19:37:30.133Z,15.80
2018-09-19T19:39:58.086Z,18.23
2018-09-19T19:42:27.549Z,16.97
2018-09-19T19:44:55.634Z,18.60
2018-09-19T19:47:23.751Z,17.40
2018-09-19T19:49:52.337Z,22.20
2018-09-19T19:52:20.348Z,19.77
2018-09-19T19:54:48.445Z,17.60
2018-09-19T19:57:16.434Z,20.30
2018-09-19T19:59:44.441Z,22.27
2018-09-19T20:02:12.445Z,17.13
2018-09-19T20:04:40.432Z,18.90
2018-09-19T20:07:08.399Z,18.63
2018-09-19T20:09:36.445Z,22.97
2018-09-19T20:12:04.391Z,19.10
2018-09-19T20:14:32.397Z,20.47
2018-09-19T20:17:00.429Z,16.77
2018-09-19T20:19:28.942Z,21.33
2018-09-19T20:21:56.936Z,21.20
2018-09-19T20:24:25.178Z,20.87
2018-09-19T20:26:53.230Z,21.20
2018-09-19T20:29:22.293Z,21.63
2018-09-19T20:31:50.487Z,20.60
2018-09-19T20:34:18.954Z,22.60
2018-09-19T20:36:46.974Z,19.90
2018-09-19T20:39:15.327Z,19.77
2018-09-19T20:41:43.315Z,20.67
2018-09-19T20:44:11.531Z,26.00
2018-09-19T20:46:39.853Z,18.37
2018-09-19T20:49:07.964Z,21.37
2018-09-19T20:51:36.149Z,24.90
2018-09-19T20:54:04.181Z,20.83
2018-09-19T20:56:32.725Z,20.20
2018-09-19T20:59:00.827Z,22.33
2018-09-19T21:01:28.842Z,21.50
2018-09-19T21:03:56.815Z,26.93
2018-09-19T21:06:25.217Z,18.70
2018-09-19T21:08:54.205Z,18.07
2018-09-19T21:11:22.227Z,21.07
2018-09-19T21:13:50.210Z,22.80
2018-09-19T21:16:18.484Z,13.70
2018-09-19T21:18:46.800Z,17.83
2018-09-19T21:21:15.098Z,15.47
2018-09-19T21:23:43.146Z,13.77
2018-09-19T21:26:11.656Z,16.00
2018-09-19T21:28:39.901Z,15.27
2018-09-19T21:31:07.866Z,14.23
2018-09-19T21:33:35.847Z,18.43
2018-09-19T21:36:03.829Z,14.50
2018-09-19T21:38:31.816Z,17.37
2018-09-19T21:40:59.778Z,14.47
2018-09-19T21:43:27.980Z,13.43
2018-09-19T21:45:55.999Z,15.63
2018-09-19T21:48:24.008Z,15.90
2018-09-19T21:50:52.047Z,11.43
2018-09-19T21:53:20.049Z,14.80
2018-09-19T21:55:48.054Z,13.73
2018-09-19T21:58:16.068Z,15.60
2018-09-19T22:00:49.257Z,15.40
